New Liberty, Colorado
Current Conditions -  °F | °C
As of 5:53 PM on Monday 24 Nov 2014 (Local Time) from KGJT Reporting Station
Clear Clear  
Wind Chill: 26°   Ceiling: Unl
Heat Index: 32°   Visibility: 10mi
Dew Point: 13°   Wind: 7mph
Humidity: 45%   Direction: 10°N
Pressure: 30.29"   Gusts: NA
Location:  39.2664°N, 108.95°W
Report Text: KGJT 250053Z 01006KT 10SM CLR 00/M11 A3029 RMK AO2 SLP282 T00001106
Loading
Personal Weather Stations






























Interactive Weather Map New forecast layout! Learn more

10-Day Weather Forecast

Advertisements
Track Severe Weather on mobile